<?xml version="1.0" encoding="UTF-8" standalone="no" ?>
<gpx xmlns="http://www.topografix.com/GPX/1/1" xmlns:xsi="http://www.w3.org/2001/XMLSchema-instance" xsi:schemaLocation="http://www.topografix.com/GPX/1/1 http://www.topografix.com/GPX/1/1/gpx.xsd" version="1.1" creator="VisuGPX - https://www.visugpx.com">
  <metadata>
    <name>trace 14/18</name>
    <desc><![CDATA[trace trail la 14/18 du 28/12/2018 en marche nordique avec FSD départ à 20 h]]></desc>
  </metadata>
  <trk>
    <name><![CDATA[20181224115520-hdQNx]]></name>
    <trkseg>
      <trkpt lat="48.01685" lon="6.58938">
        <ele>423.42</ele>
        <time>2018-12-18T08:05:08Z</time>
      </trkpt>
      <trkpt lat="48.01667" lon="6.58933">
        <ele>423.18</ele>
        <time>2018-12-18T08:06:00Z</time>
      </trkpt>
      <trkpt lat="48.01666" lon="6.58905">
        <ele>426.82</ele>
        <time>2018-12-18T08:06:38Z</time>
      </trkpt>
      <trkpt lat="48.01665" lon="6.58877">
        <ele>420.62</ele>
        <time>2018-12-18T08:06:54Z</time>
      </trkpt>
      <trkpt lat="48.01664" lon="6.5885">
        <ele>417.25</ele>
        <time>2018-12-18T08:07:08Z</time>
      </trkpt>
      <trkpt lat="48.01657" lon="6.58824">
        <ele>417.25</ele>
        <time>2018-12-18T08:07:24Z</time>
      </trkpt>
      <trkpt lat="48.01655" lon="6.58795">
        <ele>420.4</ele>
        <time>2018-12-18T08:07:36Z</time>
      </trkpt>
      <trkpt lat="48.01655" lon="6.58768">
        <ele>421.42</ele>
        <time>2018-12-18T08:07:51Z</time>
      </trkpt>
      <trkpt lat="48.01654" lon="6.58741">
        <ele>418.22</ele>
        <time>2018-12-18T08:08:04Z</time>
      </trkpt>
      <trkpt lat="48.01651" lon="6.58713">
        <ele>419.43</ele>
        <time>2018-12-18T08:08:16Z</time>
      </trkpt>
      <trkpt lat="48.0165" lon="6.58685">
        <ele>415.63</ele>
        <time>2018-12-18T08:08:30Z</time>
      </trkpt>
      <trkpt lat="48.01647" lon="6.58657">
        <ele>419.46</ele>
        <time>2018-12-18T08:08:41Z</time>
      </trkpt>
      <trkpt lat="48.01644" lon="6.58629">
        <ele>416.97</ele>
        <time>2018-12-18T08:08:55Z</time>
      </trkpt>
      <trkpt lat="48.0164" lon="6.586">
        <ele>413.42</ele>
        <time>2018-12-18T08:09:11Z</time>
      </trkpt>
      <trkpt lat="48.01638" lon="6.58573">
        <ele>413.65</ele>
        <time>2018-12-18T08:09:23Z</time>
      </trkpt>
      <trkpt lat="48.01636" lon="6.58544">
        <ele>420.18</ele>
        <time>2018-12-18T08:09:37Z</time>
      </trkpt>
      <trkpt lat="48.01628" lon="6.58519">
        <ele>419.42</ele>
        <time>2018-12-18T08:09:50Z</time>
      </trkpt>
      <trkpt lat="48.01615" lon="6.58497">
        <ele>419.43</ele>
        <time>2018-12-18T08:10:03Z</time>
      </trkpt>
      <trkpt lat="48.01601" lon="6.58477">
        <ele>419.39</ele>
        <time>2018-12-18T08:10:18Z</time>
      </trkpt>
      <trkpt lat="48.0159" lon="6.58454">
        <ele>418.45</ele>
        <time>2018-12-18T08:10:30Z</time>
      </trkpt>
      <trkpt lat="48.01579" lon="6.58433">
        <ele>420.42</ele>
        <time>2018-12-18T08:10:41Z</time>
      </trkpt>
      <trkpt lat="48.01569" lon="6.58411">
        <ele>420.46</ele>
        <time>2018-12-18T08:10:53Z</time>
      </trkpt>
      <trkpt lat="48.01558" lon="6.58388">
        <ele>427.37</ele>
        <time>2018-12-18T08:11:04Z</time>
      </trkpt>
      <trkpt lat="48.01554" lon="6.5836">
        <ele>430.41</ele>
        <time>2018-12-18T08:11:21Z</time>
      </trkpt>
      <trkpt lat="48.01555" lon="6.58331">
        <ele>426.26</ele>
        <time>2018-12-18T08:11:52Z</time>
      </trkpt>
      <trkpt lat="48.0156" lon="6.58305">
        <ele>426.45</ele>
        <time>2018-12-18T08:12:07Z</time>
      </trkpt>
      <trkpt lat="48.0157" lon="6.5828">
        <ele>428.21</ele>
        <time>2018-12-18T08:12:21Z</time>
      </trkpt>
      <trkpt lat="48.01584" lon="6.58264">
        <ele>425.42</ele>
        <time>2018-12-18T08:12:35Z</time>
      </trkpt>
      <trkpt lat="48.01602" lon="6.58254">
        <ele>426.26</ele>
        <time>2018-12-18T08:12:48Z</time>
      </trkpt>
      <trkpt lat="48.01618" lon="6.5824">
        <ele>425.21</ele>
        <time>2018-12-18T08:13:01Z</time>
      </trkpt>
      <trkpt lat="48.01626" lon="6.58215">
        <ele>432.42</ele>
        <time>2018-12-18T08:13:20Z</time>
      </trkpt>
      <trkpt lat="48.01642" lon="6.58203">
        <ele>432.46</ele>
        <time>2018-12-18T08:13:35Z</time>
      </trkpt>
      <trkpt lat="48.01656" lon="6.58182">
        <ele>433.25</ele>
        <time>2018-12-18T08:14:10Z</time>
      </trkpt>
      <trkpt lat="48.01671" lon="6.58168">
        <ele>435.21</ele>
        <time>2018-12-18T08:14:26Z</time>
      </trkpt>
      <trkpt lat="48.01675" lon="6.5814">
        <ele>438.19</ele>
        <time>2018-12-18T08:14:48Z</time>
      </trkpt>
      <trkpt lat="48.0168" lon="6.58113">
        <ele>440.21</ele>
        <time>2018-12-18T08:15:05Z</time>
      </trkpt>
      <trkpt lat="48.01683" lon="6.58086">
        <ele>447.45</ele>
        <time>2018-12-18T08:15:42Z</time>
      </trkpt>
      <trkpt lat="48.01688" lon="6.58059">
        <ele>455.62</ele>
        <time>2018-12-18T08:16:25Z</time>
      </trkpt>
      <trkpt lat="48.0169" lon="6.58032">
        <ele>442.86</ele>
        <time>2018-12-18T08:17:18Z</time>
      </trkpt>
      <trkpt lat="48.01699" lon="6.58007">
        <ele>450.57</ele>
        <time>2018-12-18T08:17:32Z</time>
      </trkpt>
      <trkpt lat="48.01712" lon="6.57987">
        <ele>448.21</ele>
        <time>2018-12-18T08:17:45Z</time>
      </trkpt>
      <trkpt lat="48.01714" lon="6.57961">
        <ele>453.22</ele>
        <time>2018-12-18T08:17:57Z</time>
      </trkpt>
      <trkpt lat="48.0172" lon="6.57934">
        <ele>455.61</ele>
        <time>2018-12-18T08:18:11Z</time>
      </trkpt>
      <trkpt lat="48.01721" lon="6.57903">
        <ele>457.37</ele>
        <time>2018-12-18T08:18:23Z</time>
      </trkpt>
      <trkpt lat="48.01733" lon="6.57879">
        <ele>459.09</ele>
        <time>2018-12-18T08:18:35Z</time>
      </trkpt>
      <trkpt lat="48.01742" lon="6.57855">
        <ele>459.3</ele>
        <time>2018-12-18T08:18:48Z</time>
      </trkpt>
      <trkpt lat="48.01752" lon="6.57832">
        <ele>463.16</ele>
        <time>2018-12-18T08:18:58Z</time>
      </trkpt>
      <trkpt lat="48.01751" lon="6.57803">
        <ele>467.26</ele>
        <time>2018-12-18T08:19:10Z</time>
      </trkpt>
      <trkpt lat="48.01764" lon="6.57784">
        <ele>462.38</ele>
        <time>2018-12-18T08:19:22Z</time>
      </trkpt>
      <trkpt lat="48.01768" lon="6.57755">
        <ele>464.37</ele>
        <time>2018-12-18T08:19:36Z</time>
      </trkpt>
      <trkpt lat="48.01769" lon="6.57728">
        <ele>466.38</ele>
        <time>2018-12-18T08:19:51Z</time>
      </trkpt>
      <trkpt lat="48.01773" lon="6.57701">
        <ele>467.62</ele>
        <time>2018-12-18T08:20:15Z</time>
      </trkpt>
      <trkpt lat="48.01784" lon="6.57679">
        <ele>468.61</ele>
        <time>2018-12-18T08:20:28Z</time>
      </trkpt>
      <trkpt lat="48.01791" lon="6.57652">
        <ele>472.44</ele>
        <time>2018-12-18T08:20:41Z</time>
      </trkpt>
      <trkpt lat="48.01795" lon="6.57625">
        <ele>471.46</ele>
        <time>2018-12-18T08:20:55Z</time>
      </trkpt>
      <trkpt lat="48.01802" lon="6.57599">
        <ele>465.3</ele>
        <time>2018-12-18T08:22:26Z</time>
      </trkpt>
      <trkpt lat="48.01807" lon="6.57571">
        <ele>474.42</ele>
        <time>2018-12-18T08:22:51Z</time>
      </trkpt>
      <trkpt lat="48.01812" lon="6.57546">
        <ele>472.58</ele>
        <time>2018-12-18T08:23:01Z</time>
      </trkpt>
      <trkpt lat="48.01813" lon="6.57517">
        <ele>463.43</ele>
        <time>2018-12-18T08:23:14Z</time>
      </trkpt>
      <trkpt lat="48.01812" lon="6.57489">
        <ele>465.41</ele>
        <time>2018-12-18T08:23:23Z</time>
      </trkpt>
      <trkpt lat="48.0181" lon="6.57462">
        <ele>460.41</ele>
        <time>2018-12-18T08:23:37Z</time>
      </trkpt>
      <trkpt lat="48.01807" lon="6.57435">
        <ele>459.22</ele>
        <time>2018-12-18T08:23:49Z</time>
      </trkpt>
      <trkpt lat="48.01807" lon="6.57408">
        <ele>466.37</ele>
        <time>2018-12-18T08:23:58Z</time>
      </trkpt>
      <trkpt lat="48.01807" lon="6.5738">
        <ele>473.41</ele>
        <time>2018-12-18T08:24:11Z</time>
      </trkpt>
      <trkpt lat="48.01809" lon="6.57352">
        <ele>479.25</ele>
        <time>2018-12-18T08:24:23Z</time>
      </trkpt>
      <trkpt lat="48.01812" lon="6.57325">
        <ele>489.4</ele>
        <time>2018-12-18T08:24:34Z</time>
      </trkpt>
      <trkpt lat="48.01814" lon="6.57296">
        <ele>492.4</ele>
        <time>2018-12-18T08:24:48Z</time>
      </trkpt>
      <trkpt lat="48.01819" lon="6.5727">
        <ele>493.39</ele>
        <time>2018-12-18T08:25:04Z</time>
      </trkpt>
      <trkpt lat="48.01811" lon="6.57246">
        <ele>485.22</ele>
        <time>2018-12-18T08:25:25Z</time>
      </trkpt>
      <trkpt lat="48.01798" lon="6.57225">
        <ele>488.58</ele>
        <time>2018-12-18T08:25:39Z</time>
      </trkpt>
      <trkpt lat="48.0178" lon="6.57227">
        <ele>496.17</ele>
        <time>2018-12-18T08:25:52Z</time>
      </trkpt>
      <trkpt lat="48.01786" lon="6.57253">
        <ele>502.43</ele>
        <time>2018-12-18T08:26:17Z</time>
      </trkpt>
      <trkpt lat="48.01792" lon="6.57279">
        <ele>491.63</ele>
        <time>2018-12-18T08:26:32Z</time>
      </trkpt>
      <trkpt lat="48.01795" lon="6.57307">
        <ele>492.17</ele>
        <time>2018-12-18T08:26:45Z</time>
      </trkpt>
      <trkpt lat="48.018" lon="6.57333">
        <ele>478.66</ele>
        <time>2018-12-18T08:27:03Z</time>
      </trkpt>
      <trkpt lat="48.01802" lon="6.57361">
        <ele>478.62</ele>
        <time>2018-12-18T08:27:16Z</time>
      </trkpt>
      <trkpt lat="48.01803" lon="6.57389">
        <ele>470.62</ele>
        <time>2018-12-18T08:27:30Z</time>
      </trkpt>
      <trkpt lat="48.01801" lon="6.57419">
        <ele>469.43</ele>
        <time>2018-12-18T08:27:47Z</time>
      </trkpt>
      <trkpt lat="48.018" lon="6.57446">
        <ele>463.63</ele>
        <time>2018-12-18T08:28:03Z</time>
      </trkpt>
      <trkpt lat="48.01796" lon="6.57475">
        <ele>455.46</ele>
        <time>2018-12-18T08:28:18Z</time>
      </trkpt>
      <trkpt lat="48.01801" lon="6.57501">
        <ele>450.82</ele>
        <time>2018-12-18T08:28:29Z</time>
      </trkpt>
      <trkpt lat="48.01801" lon="6.57531">
        <ele>441.22</ele>
        <time>2018-12-18T08:28:47Z</time>
      </trkpt>
      <trkpt lat="48.01797" lon="6.57557">
        <ele>437.62</ele>
        <time>2018-12-18T08:28:59Z</time>
      </trkpt>
      <trkpt lat="48.01797" lon="6.57586">
        <ele>442.31</ele>
        <time>2018-12-18T08:29:08Z</time>
      </trkpt>
      <trkpt lat="48.0178" lon="6.57602">
        <ele>438.63</ele>
        <time>2018-12-18T08:29:19Z</time>
      </trkpt>
      <trkpt lat="48.01766" lon="6.57621">
        <ele>441.17</ele>
        <time>2018-12-18T08:29:27Z</time>
      </trkpt>
      <trkpt lat="48.01756" lon="6.57645">
        <ele>448.92</ele>
        <time>2018-12-18T08:29:32Z</time>
      </trkpt>
      <trkpt lat="48.01742" lon="6.57662">
        <ele>455.22</ele>
        <time>2018-12-18T08:29:44Z</time>
      </trkpt>
      <trkpt lat="48.01728" lon="6.57685">
        <ele>460.92</ele>
        <time>2018-12-18T08:29:53Z</time>
      </trkpt>
      <trkpt lat="48.01713" lon="6.57703">
        <ele>468.41</ele>
        <time>2018-12-18T08:30:03Z</time>
      </trkpt>
      <trkpt lat="48.01704" lon="6.57726">
        <ele>476.21</ele>
        <time>2018-12-18T08:30:16Z</time>
      </trkpt>
      <trkpt lat="48.01687" lon="6.5774">
        <ele>479.47</ele>
        <time>2018-12-18T08:30:34Z</time>
      </trkpt>
      <trkpt lat="48.01669" lon="6.57747">
        <ele>482.27</ele>
        <time>2018-12-18T08:30:54Z</time>
      </trkpt>
      <trkpt lat="48.01652" lon="6.57756">
        <ele>488.21</ele>
        <time>2018-12-18T08:31:09Z</time>
      </trkpt>
      <trkpt lat="48.01656" lon="6.57729">
        <ele>492.61</ele>
        <time>2018-12-18T08:31:47Z</time>
      </trkpt>
      <trkpt lat="48.0167" lon="6.57713">
        <ele>487.3</ele>
        <time>2018-12-18T08:32:02Z</time>
      </trkpt>
      <trkpt lat="48.01684" lon="6.57694">
        <ele>491.46</ele>
        <time>2018-12-18T08:32:22Z</time>
      </trkpt>
      <trkpt lat="48.01699" lon="6.57678">
        <ele>496.21</ele>
        <time>2018-12-18T08:32:36Z</time>
      </trkpt>
      <trkpt lat="48.01712" lon="6.57659">
        <ele>501.46</ele>
        <time>2018-12-18T08:32:53Z</time>
      </trkpt>
      <trkpt lat="48.01723" lon="6.57638">
        <ele>501.18</ele>
        <time>2018-12-18T08:33:04Z</time>
      </trkpt>
      <trkpt lat="48.01734" lon="6.57613">
        <ele>501.21</ele>
        <time>2018-12-18T08:33:15Z</time>
      </trkpt>
      <trkpt lat="48.01719" lon="6.57631">
        <ele>510.18</ele>
        <time>2018-12-18T08:33:41Z</time>
      </trkpt>
      <trkpt lat="48.01701" lon="6.57637">
        <ele>513.38</ele>
        <time>2018-12-18T08:33:57Z</time>
      </trkpt>
      <trkpt lat="48.01686" lon="6.57656">
        <ele>517.41</ele>
        <time>2018-12-18T08:34:09Z</time>
      </trkpt>
      <trkpt lat="48.0167" lon="6.57672">
        <ele>521.21</ele>
        <time>2018-12-18T08:34:22Z</time>
      </trkpt>
      <trkpt lat="48.01653" lon="6.57678">
        <ele>526.06</ele>
        <time>2018-12-18T08:34:41Z</time>
      </trkpt>
      <trkpt lat="48.01633" lon="6.57687">
        <ele>530.24</ele>
        <time>2018-12-18T08:34:56Z</time>
      </trkpt>
      <trkpt lat="48.01645" lon="6.57667">
        <ele>529.41</ele>
        <time>2018-12-18T08:35:14Z</time>
      </trkpt>
      <trkpt lat="48.01658" lon="6.57647">
        <ele>534.64</ele>
        <time>2018-12-18T08:35:31Z</time>
      </trkpt>
      <trkpt lat="48.01671" lon="6.57627">
        <ele>533.42</ele>
        <time>2018-12-18T08:35:48Z</time>
      </trkpt>
      <trkpt lat="48.01655" lon="6.57614">
        <ele>539.42</ele>
        <time>2018-12-18T08:41:00Z</time>
      </trkpt>
      <trkpt lat="48.0164" lon="6.57598">
        <ele>548.62</ele>
        <time>2018-12-18T08:41:43Z</time>
      </trkpt>
      <trkpt lat="48.0163" lon="6.57575">
        <ele>556.18</ele>
        <time>2018-12-18T08:41:59Z</time>
      </trkpt>
      <trkpt lat="48.01618" lon="6.57555">
        <ele>561.22</ele>
        <time>2018-12-18T08:42:13Z</time>
      </trkpt>
      <trkpt lat="48.01613" lon="6.57529">
        <ele>566.62</ele>
        <time>2018-12-18T08:42:44Z</time>
      </trkpt>
      <trkpt lat="48.01595" lon="6.57526">
        <ele>565.57</ele>
        <time>2018-12-18T08:43:04Z</time>
      </trkpt>
      <trkpt lat="48.01583" lon="6.57504">
        <ele>567.22</ele>
        <time>2018-12-18T08:43:34Z</time>
      </trkpt>
      <trkpt lat="48.01594" lon="6.57483">
        <ele>570.02</ele>
        <time>2018-12-18T08:43:48Z</time>
      </trkpt>
      <trkpt lat="48.01604" lon="6.57457">
        <ele>573.4</ele>
        <time>2018-12-18T08:44:05Z</time>
      </trkpt>
      <trkpt lat="48.01599" lon="6.5743">
        <ele>577.22</ele>
        <time>2018-12-18T08:44:17Z</time>
      </trkpt>
      <trkpt lat="48.01581" lon="6.57419">
        <ele>573.62</ele>
        <time>2018-12-18T08:44:31Z</time>
      </trkpt>
      <trkpt lat="48.01562" lon="6.57416">
        <ele>566.42</ele>
        <time>2018-12-18T08:44:45Z</time>
      </trkpt>
      <trkpt lat="48.01544" lon="6.57415">
        <ele>563.38</ele>
        <time>2018-12-18T08:44:58Z</time>
      </trkpt>
      <trkpt lat="48.01526" lon="6.5741">
        <ele>567.37</ele>
        <time>2018-12-18T08:45:10Z</time>
      </trkpt>
      <trkpt lat="48.01508" lon="6.57404">
        <ele>567.24</ele>
        <time>2018-12-18T08:45:23Z</time>
      </trkpt>
      <trkpt lat="48.01492" lon="6.57391">
        <ele>567.42</ele>
        <time>2018-12-18T08:45:36Z</time>
      </trkpt>
      <trkpt lat="48.01474" lon="6.57382">
        <ele>569.44</ele>
        <time>2018-12-18T08:45:48Z</time>
      </trkpt>
      <trkpt lat="48.01456" lon="6.57379">
        <ele>570.22</ele>
        <time>2018-12-18T08:46:14Z</time>
      </trkpt>
      <trkpt lat="48.01438" lon="6.57382">
        <ele>568.61</ele>
        <time>2018-12-18T08:46:28Z</time>
      </trkpt>
      <trkpt lat="48.01427" lon="6.57405">
        <ele>566.06</ele>
        <time>2018-12-18T08:46:47Z</time>
      </trkpt>
      <trkpt lat="48.01429" lon="6.57436">
        <ele>568.13</ele>
        <time>2018-12-18T08:47:07Z</time>
      </trkpt>
      <trkpt lat="48.01441" lon="6.57458">
        <ele>572.17</ele>
        <time>2018-12-18T08:47:31Z</time>
      </trkpt>
      <trkpt lat="48.01506" lon="6.57511">
        <ele>566.62</ele>
        <time>2018-12-18T08:48:48Z</time>
      </trkpt>
      <trkpt lat="48.0143" lon="6.57449">
        <ele>555.71</ele>
        <time>2018-12-18T08:50:16Z</time>
      </trkpt>
      <trkpt lat="48.01427" lon="6.57476">
        <ele>572.17</ele>
        <time>2018-12-18T08:51:03Z</time>
      </trkpt>
      <trkpt lat="48.01418" lon="6.575">
        <ele>574.81</ele>
        <time>2018-12-18T08:51:18Z</time>
      </trkpt>
      <trkpt lat="48.01401" lon="6.57515">
        <ele>572.41</ele>
        <time>2018-12-18T08:51:37Z</time>
      </trkpt>
      <trkpt lat="48.01382" lon="6.57521">
        <ele>574.41</ele>
        <time>2018-12-18T08:51:52Z</time>
      </trkpt>
      <trkpt lat="48.01364" lon="6.57518">
        <ele>577.42</ele>
        <time>2018-12-18T08:52:10Z</time>
      </trkpt>
      <trkpt lat="48.01366" lon="6.57491">
        <ele>576.62</ele>
        <time>2018-12-18T08:52:34Z</time>
      </trkpt>
      <trkpt lat="48.0136" lon="6.57465">
        <ele>573.25</ele>
        <time>2018-12-18T08:52:51Z</time>
      </trkpt>
      <trkpt lat="48.01342" lon="6.57463">
        <ele>573.37</ele>
        <time>2018-12-18T08:53:04Z</time>
      </trkpt>
      <trkpt lat="48.01323" lon="6.57461">
        <ele>570.25</ele>
        <time>2018-12-18T08:53:20Z</time>
      </trkpt>
      <trkpt lat="48.01306" lon="6.57472">
        <ele>560.66</ele>
        <time>2018-12-18T08:54:26Z</time>
      </trkpt>
      <trkpt lat="48.01294" lon="6.57495">
        <ele>555.82</ele>
        <time>2018-12-18T08:54:44Z</time>
      </trkpt>
      <trkpt lat="48.01277" lon="6.57507">
        <ele>548.64</ele>
        <time>2018-12-18T08:55:00Z</time>
      </trkpt>
      <trkpt lat="48.01258" lon="6.57508">
        <ele>552.22</ele>
        <time>2018-12-18T08:55:12Z</time>
      </trkpt>
      <trkpt lat="48.0124" lon="6.5751">
        <ele>546.43</ele>
        <time>2018-12-18T08:55:26Z</time>
      </trkpt>
      <trkpt lat="48.01221" lon="6.57512">
        <ele>542.65</ele>
        <time>2018-12-18T08:55:41Z</time>
      </trkpt>
      <trkpt lat="48.01202" lon="6.57513">
        <ele>534.46</ele>
        <time>2018-12-18T08:56:00Z</time>
      </trkpt>
      <trkpt lat="48.01184" lon="6.57518">
        <ele>528.82</ele>
        <time>2018-12-18T08:56:14Z</time>
      </trkpt>
      <trkpt lat="48.01165" lon="6.57522">
        <ele>525.42</ele>
        <time>2018-12-18T08:56:28Z</time>
      </trkpt>
      <trkpt lat="48.01146" lon="6.57517">
        <ele>525.58</ele>
        <time>2018-12-18T08:56:47Z</time>
      </trkpt>
      <trkpt lat="48.01126" lon="6.57514">
        <ele>522.66</ele>
        <time>2018-12-18T08:57:00Z</time>
      </trkpt>
      <trkpt lat="48.01107" lon="6.57519">
        <ele>522.22</ele>
        <time>2018-12-18T08:57:09Z</time>
      </trkpt>
      <trkpt lat="48.0109" lon="6.57529">
        <ele>518.42</ele>
        <time>2018-12-18T08:57:24Z</time>
      </trkpt>
      <trkpt lat="48.01071" lon="6.5753">
        <ele>515.46</ele>
        <time>2018-12-18T08:57:34Z</time>
      </trkpt>
      <trkpt lat="48.01053" lon="6.57534">
        <ele>513.41</ele>
        <time>2018-12-18T08:57:46Z</time>
      </trkpt>
      <trkpt lat="48.01036" lon="6.5754">
        <ele>508.66</ele>
        <time>2018-12-18T08:58:00Z</time>
      </trkpt>
      <trkpt lat="48.01018" lon="6.57548">
        <ele>512.1</ele>
        <time>2018-12-18T08:58:13Z</time>
      </trkpt>
      <trkpt lat="48.01002" lon="6.57562">
        <ele>510.14</ele>
        <time>2018-12-18T08:58:28Z</time>
      </trkpt>
      <trkpt lat="48.00985" lon="6.57572">
        <ele>506.41</ele>
        <time>2018-12-18T08:58:40Z</time>
      </trkpt>
      <trkpt lat="48.00968" lon="6.57579">
        <ele>501.43</ele>
        <time>2018-12-18T08:58:59Z</time>
      </trkpt>
      <trkpt lat="48.00952" lon="6.57591">
        <ele>499.67</ele>
        <time>2018-12-18T08:59:11Z</time>
      </trkpt>
      <trkpt lat="48.00933" lon="6.57598">
        <ele>493.58</ele>
        <time>2018-12-18T08:59:24Z</time>
      </trkpt>
      <trkpt lat="48.00915" lon="6.57606">
        <ele>496.22</ele>
        <time>2018-12-18T08:59:42Z</time>
      </trkpt>
      <trkpt lat="48.00895" lon="6.57611">
        <ele>500.58</ele>
        <time>2018-12-18T08:59:52Z</time>
      </trkpt>
      <trkpt lat="48.00876" lon="6.57617">
        <ele>506.17</ele>
        <time>2018-12-18T09:00:01Z</time>
      </trkpt>
      <trkpt lat="48.00857" lon="6.57624">
        <ele>509.42</ele>
        <time>2018-12-18T09:00:11Z</time>
      </trkpt>
      <trkpt lat="48.0084" lon="6.57632">
        <ele>510.37</ele>
        <time>2018-12-18T09:00:23Z</time>
      </trkpt>
      <trkpt lat="48.00821" lon="6.57629">
        <ele>509.25</ele>
        <time>2018-12-18T09:00:36Z</time>
      </trkpt>
      <trkpt lat="48.00802" lon="6.57633">
        <ele>510.17</ele>
        <time>2018-12-18T09:00:49Z</time>
      </trkpt>
      <trkpt lat="48.00783" lon="6.5764">
        <ele>509.62</ele>
        <time>2018-12-18T09:01:03Z</time>
      </trkpt>
      <trkpt lat="48.00765" lon="6.57649">
        <ele>515.37</ele>
        <time>2018-12-18T09:01:14Z</time>
      </trkpt>
      <trkpt lat="48.00747" lon="6.5766">
        <ele>517.42</ele>
        <time>2018-12-18T09:01:25Z</time>
      </trkpt>
      <trkpt lat="48.00729" lon="6.57668">
        <ele>516.45</ele>
        <time>2018-12-18T09:01:35Z</time>
      </trkpt>
      <trkpt lat="48.0071" lon="6.57671">
        <ele>512.23</ele>
        <time>2018-12-18T09:01:48Z</time>
      </trkpt>
      <trkpt lat="48.00692" lon="6.57672">
        <ele>509.63</ele>
        <time>2018-12-18T09:02:02Z</time>
      </trkpt>
      <trkpt lat="48.00673" lon="6.57676">
        <ele>512.43</ele>
        <time>2018-12-18T09:02:14Z</time>
      </trkpt>
      <trkpt lat="48.00654" lon="6.57674">
        <ele>512.38</ele>
        <time>2018-12-18T09:02:29Z</time>
      </trkpt>
      <trkpt lat="48.00636" lon="6.57675">
        <ele>512.06</ele>
        <time>2018-12-18T09:03:11Z</time>
      </trkpt>
      <trkpt lat="48.00618" lon="6.57669">
        <ele>510.42</ele>
        <time>2018-12-18T09:03:25Z</time>
      </trkpt>
      <trkpt lat="48.006" lon="6.57658">
        <ele>510.41</ele>
        <time>2018-12-18T09:03:38Z</time>
      </trkpt>
      <trkpt lat="48.00583" lon="6.57669">
        <ele>511.39</ele>
        <time>2018-12-18T09:03:53Z</time>
      </trkpt>
      <trkpt lat="48.00566" lon="6.57678">
        <ele>508.5</ele>
        <time>2018-12-18T09:04:09Z</time>
      </trkpt>
      <trkpt lat="48.00551" lon="6.57696">
        <ele>509.21</ele>
        <time>2018-12-18T09:04:35Z</time>
      </trkpt>
      <trkpt lat="48.00537" lon="6.57714">
        <ele>510.37</ele>
        <time>2018-12-18T09:04:52Z</time>
      </trkpt>
      <trkpt lat="48.00524" lon="6.57733">
        <ele>508.27</ele>
        <time>2018-12-18T09:05:10Z</time>
      </trkpt>
      <trkpt lat="48.00514" lon="6.57756">
        <ele>509.42</ele>
        <time>2018-12-18T09:05:25Z</time>
      </trkpt>
      <trkpt lat="48.00499" lon="6.57772">
        <ele>513.21</ele>
        <time>2018-12-18T09:05:40Z</time>
      </trkpt>
      <trkpt lat="48.00485" lon="6.5779">
        <ele>507.66</ele>
        <time>2018-12-18T09:05:52Z</time>
      </trkpt>
      <trkpt lat="48.00468" lon="6.57806">
        <ele>515.21</ele>
        <time>2018-12-18T09:06:07Z</time>
      </trkpt>
      <trkpt lat="48.00451" lon="6.57818">
        <ele>520.42</ele>
        <time>2018-12-18T09:06:22Z</time>
      </trkpt>
      <trkpt lat="48.00432" lon="6.57819">
        <ele>515.43</ele>
        <time>2018-12-18T09:06:36Z</time>
      </trkpt>
      <trkpt lat="48.00413" lon="6.57828">
        <ele>517.45</ele>
        <time>2018-12-18T09:06:51Z</time>
      </trkpt>
      <trkpt lat="48.00397" lon="6.57844">
        <ele>515.42</ele>
        <time>2018-12-18T09:07:04Z</time>
      </trkpt>
      <trkpt lat="48.00392" lon="6.5787">
        <ele>514.42</ele>
        <time>2018-12-18T09:07:20Z</time>
      </trkpt>
      <trkpt lat="48.00406" lon="6.57887">
        <ele>511.65</ele>
        <time>2018-12-18T09:07:38Z</time>
      </trkpt>
      <trkpt lat="48.00423" lon="6.57901">
        <ele>508.42</ele>
        <time>2018-12-18T09:07:53Z</time>
      </trkpt>
      <trkpt lat="48.00432" lon="6.57925">
        <ele>506.66</ele>
        <time>2018-12-18T09:08:04Z</time>
      </trkpt>
      <trkpt lat="48.0045" lon="6.57934">
        <ele>501.31</ele>
        <time>2018-12-18T09:08:23Z</time>
      </trkpt>
      <trkpt lat="48.00469" lon="6.5793">
        <ele>500.22</ele>
        <time>2018-12-18T09:08:33Z</time>
      </trkpt>
      <trkpt lat="48.00486" lon="6.57922">
        <ele>496.62</ele>
        <time>2018-12-18T09:08:46Z</time>
      </trkpt>
      <trkpt lat="48.00505" lon="6.57921">
        <ele>503.97</ele>
        <time>2018-12-18T09:20:30Z</time>
      </trkpt>
      <trkpt lat="48.00521" lon="6.57908">
        <ele>496.46</ele>
        <time>2018-12-18T09:21:37Z</time>
      </trkpt>
      <trkpt lat="48.0054" lon="6.57908">
        <ele>492.98</ele>
        <time>2018-12-18T09:22:14Z</time>
      </trkpt>
      <trkpt lat="48.00558" lon="6.57913">
        <ele>488.27</ele>
        <time>2018-12-18T09:22:26Z</time>
      </trkpt>
      <trkpt lat="48.00576" lon="6.57919">
        <ele>490.46</ele>
        <time>2018-12-18T09:22:35Z</time>
      </trkpt>
      <trkpt lat="48.00589" lon="6.57937">
        <ele>485.44</ele>
        <time>2018-12-18T09:22:52Z</time>
      </trkpt>
      <trkpt lat="48.00578" lon="6.57958">
        <ele>483.42</ele>
        <time>2018-12-18T09:23:06Z</time>
      </trkpt>
      <trkpt lat="48.00572" lon="6.57984">
        <ele>482.62</ele>
        <time>2018-12-18T09:23:25Z</time>
      </trkpt>
      <trkpt lat="48.00572" lon="6.58012">
        <ele>478.42</ele>
        <time>2018-12-18T09:23:39Z</time>
      </trkpt>
      <trkpt lat="48.00567" lon="6.58038">
        <ele>472.63</ele>
        <time>2018-12-18T09:24:09Z</time>
      </trkpt>
      <trkpt lat="48.0055" lon="6.58053">
        <ele>465.46</ele>
        <time>2018-12-18T09:24:29Z</time>
      </trkpt>
      <trkpt lat="48.0053" lon="6.58056">
        <ele>467.98</ele>
        <time>2018-12-18T09:24:44Z</time>
      </trkpt>
      <trkpt lat="48.00509" lon="6.58058">
        <ele>467.06</ele>
        <time>2018-12-18T09:24:57Z</time>
      </trkpt>
      <trkpt lat="48.0049" lon="6.58054">
        <ele>460.57</ele>
        <time>2018-12-18T09:25:10Z</time>
      </trkpt>
      <trkpt lat="48.00472" lon="6.58055">
        <ele>455.65</ele>
        <time>2018-12-18T09:25:28Z</time>
      </trkpt>
      <trkpt lat="48.00461" lon="6.58077">
        <ele>448.46</ele>
        <time>2018-12-18T09:25:41Z</time>
      </trkpt>
      <trkpt lat="48.00455" lon="6.58105">
        <ele>451.98</ele>
        <time>2018-12-18T09:25:53Z</time>
      </trkpt>
      <trkpt lat="48.00453" lon="6.58133">
        <ele>451.46</ele>
        <time>2018-12-18T09:26:04Z</time>
      </trkpt>
      <trkpt lat="48.00447" lon="6.58158">
        <ele>448.37</ele>
        <time>2018-12-18T09:26:15Z</time>
      </trkpt>
      <trkpt lat="48.00455" lon="6.58184">
        <ele>456.61</ele>
        <time>2018-12-18T09:26:33Z</time>
      </trkpt>
      <trkpt lat="48.00463" lon="6.5821">
        <ele>453.02</ele>
        <time>2018-12-18T09:26:53Z</time>
      </trkpt>
      <trkpt lat="48.00478" lon="6.58226">
        <ele>459.22</ele>
        <time>2018-12-18T09:27:06Z</time>
      </trkpt>
      <trkpt lat="48.00492" lon="6.58244">
        <ele>456.62</ele>
        <time>2018-12-18T09:27:22Z</time>
      </trkpt>
      <trkpt lat="48.00511" lon="6.58255">
        <ele>457.43</ele>
        <time>2018-12-18T09:27:35Z</time>
      </trkpt>
      <trkpt lat="48.00527" lon="6.58267">
        <ele>459.66</ele>
        <time>2018-12-18T09:27:50Z</time>
      </trkpt>
      <trkpt lat="48.00543" lon="6.58279">
        <ele>463.17</ele>
        <time>2018-12-18T09:28:04Z</time>
      </trkpt>
      <trkpt lat="48.00557" lon="6.58297">
        <ele>468.81</ele>
        <time>2018-12-18T09:28:20Z</time>
      </trkpt>
      <trkpt lat="48.00555" lon="6.58326">
        <ele>469.41</ele>
        <time>2018-12-18T09:28:35Z</time>
      </trkpt>
      <trkpt lat="48.00553" lon="6.58353">
        <ele>474.21</ele>
        <time>2018-12-18T09:28:51Z</time>
      </trkpt>
      <trkpt lat="48.00544" lon="6.58377">
        <ele>480.02</ele>
        <time>2018-12-18T09:29:26Z</time>
      </trkpt>
      <trkpt lat="48.0053" lon="6.58395">
        <ele>481.61</ele>
        <time>2018-12-18T09:29:49Z</time>
      </trkpt>
      <trkpt lat="48.00518" lon="6.58416">
        <ele>486.62</ele>
        <time>2018-12-18T09:30:07Z</time>
      </trkpt>
      <trkpt lat="48.00507" lon="6.58439">
        <ele>488.22</ele>
        <time>2018-12-18T09:30:27Z</time>
      </trkpt>
      <trkpt lat="48.00493" lon="6.58456">
        <ele>492.4</ele>
        <time>2018-12-18T09:30:44Z</time>
      </trkpt>
      <trkpt lat="48.00475" lon="6.58464">
        <ele>492.62</ele>
        <time>2018-12-18T09:31:08Z</time>
      </trkpt>
      <trkpt lat="48.0046" lon="6.58444">
        <ele>483.38</ele>
        <time>2018-12-18T09:31:25Z</time>
      </trkpt>
      <trkpt lat="48.00448" lon="6.58423">
        <ele>490.45</ele>
        <time>2018-12-18T09:31:41Z</time>
      </trkpt>
      <trkpt lat="48.00432" lon="6.58408">
        <ele>486.82</ele>
        <time>2018-12-18T09:31:52Z</time>
      </trkpt>
      <trkpt lat="48.0042" lon="6.58386">
        <ele>494.44</ele>
        <time>2018-12-18T09:32:05Z</time>
      </trkpt>
      <trkpt lat="48.00407" lon="6.58367">
        <ele>492.7</ele>
        <time>2018-12-18T09:32:17Z</time>
      </trkpt>
      <trkpt lat="48.00396" lon="6.58346">
        <ele>495.57</ele>
        <time>2018-12-18T09:33:59Z</time>
      </trkpt>
      <trkpt lat="48.00381" lon="6.58329">
        <ele>495.82</ele>
        <time>2018-12-18T09:34:18Z</time>
      </trkpt>
      <trkpt lat="48.00365" lon="6.58311">
        <ele>498.65</ele>
        <time>2018-12-18T09:34:37Z</time>
      </trkpt>
      <trkpt lat="48.00347" lon="6.58302">
        <ele>505.43</ele>
        <time>2018-12-18T09:34:58Z</time>
      </trkpt>
      <trkpt lat="48.00332" lon="6.58317">
        <ele>510.65</ele>
        <time>2018-12-18T09:35:14Z</time>
      </trkpt>
      <trkpt lat="48.00321" lon="6.58339">
        <ele>513.38</ele>
        <time>2018-12-18T09:35:32Z</time>
      </trkpt>
      <trkpt lat="48.00319" lon="6.58368">
        <ele>505.35</ele>
        <time>2018-12-18T09:35:53Z</time>
      </trkpt>
      <trkpt lat="48.00336" lon="6.58383">
        <ele>511.42</ele>
        <time>2018-12-18T09:36:54Z</time>
      </trkpt>
      <trkpt lat="48.00342" lon="6.5841">
        <ele>510.21</ele>
        <time>2018-12-18T09:37:14Z</time>
      </trkpt>
      <trkpt lat="48.0035" lon="6.58435">
        <ele>514.82</ele>
        <time>2018-12-18T09:37:28Z</time>
      </trkpt>
      <trkpt lat="48.00361" lon="6.58457">
        <ele>517.45</ele>
        <time>2018-12-18T09:37:39Z</time>
      </trkpt>
      <trkpt lat="48.00375" lon="6.58475">
        <ele>520.42</ele>
        <time>2018-12-18T09:37:56Z</time>
      </trkpt>
      <trkpt lat="48.00384" lon="6.58499">
        <ele>527.38</ele>
        <time>2018-12-18T09:38:09Z</time>
      </trkpt>
      <trkpt lat="48.00379" lon="6.58525">
        <ele>521.47</ele>
        <time>2018-12-18T09:38:25Z</time>
      </trkpt>
      <trkpt lat="48.00372" lon="6.5855">
        <ele>523.45</ele>
        <time>2018-12-18T09:38:58Z</time>
      </trkpt>
      <trkpt lat="48.00361" lon="6.58572">
        <ele>528.47</ele>
        <time>2018-12-18T09:39:29Z</time>
      </trkpt>
      <trkpt lat="48.00344" lon="6.5858">
        <ele>536.02</ele>
        <time>2018-12-18T09:39:50Z</time>
      </trkpt>
      <trkpt lat="48.00341" lon="6.58607">
        <ele>535.42</ele>
        <time>2018-12-18T09:40:16Z</time>
      </trkpt>
      <trkpt lat="48.00338" lon="6.58634">
        <ele>527.46</ele>
        <time>2018-12-18T09:40:34Z</time>
      </trkpt>
      <trkpt lat="48.00355" lon="6.58644">
        <ele>528.17</ele>
        <time>2018-12-18T09:41:12Z</time>
      </trkpt>
      <trkpt lat="48.00372" lon="6.58636">
        <ele>533.02</ele>
        <time>2018-12-18T09:41:25Z</time>
      </trkpt>
      <trkpt lat="48.00391" lon="6.58628">
        <ele>530.42</ele>
        <time>2018-12-18T09:41:38Z</time>
      </trkpt>
      <trkpt lat="48.00409" lon="6.58626">
        <ele>529.54</ele>
        <time>2018-12-18T09:42:01Z</time>
      </trkpt>
      <trkpt lat="48.00425" lon="6.58637">
        <ele>529.66</ele>
        <time>2018-12-18T09:42:18Z</time>
      </trkpt>
      <trkpt lat="48.00439" lon="6.58657">
        <ele>527.42</ele>
        <time>2018-12-18T09:42:30Z</time>
      </trkpt>
      <trkpt lat="48.00453" lon="6.58676">
        <ele>529.18</ele>
        <time>2018-12-18T09:42:41Z</time>
      </trkpt>
      <trkpt lat="48.00464" lon="6.58698">
        <ele>532.13</ele>
        <time>2018-12-18T09:42:54Z</time>
      </trkpt>
      <trkpt lat="48.00478" lon="6.58717">
        <ele>535.61</ele>
        <time>2018-12-18T09:43:07Z</time>
      </trkpt>
      <trkpt lat="48.00487" lon="6.58742">
        <ele>535.66</ele>
        <time>2018-12-18T09:43:22Z</time>
      </trkpt>
      <trkpt lat="48.00497" lon="6.58766">
        <ele>534.4</ele>
        <time>2018-12-18T09:43:37Z</time>
      </trkpt>
      <trkpt lat="48.00509" lon="6.58787">
        <ele>538.37</ele>
        <time>2018-12-18T09:43:52Z</time>
      </trkpt>
      <trkpt lat="48.0052" lon="6.58808">
        <ele>532.62</ele>
        <time>2018-12-18T09:44:05Z</time>
      </trkpt>
      <trkpt lat="48.00535" lon="6.58826">
        <ele>530.46</ele>
        <time>2018-12-18T09:44:17Z</time>
      </trkpt>
      <trkpt lat="48.00546" lon="6.58848">
        <ele>528.42</ele>
        <time>2018-12-18T09:44:30Z</time>
      </trkpt>
      <trkpt lat="48.00559" lon="6.5887">
        <ele>524.42</ele>
        <time>2018-12-18T09:44:46Z</time>
      </trkpt>
      <trkpt lat="48.00572" lon="6.58889">
        <ele>522.22</ele>
        <time>2018-12-18T09:44:58Z</time>
      </trkpt>
      <trkpt lat="48.00588" lon="6.58905">
        <ele>524.56</ele>
        <time>2018-12-18T09:45:13Z</time>
      </trkpt>
      <trkpt lat="48.00602" lon="6.58922">
        <ele>521.39</ele>
        <time>2018-12-18T09:45:27Z</time>
      </trkpt>
      <trkpt lat="48.00617" lon="6.58943">
        <ele>522.38</ele>
        <time>2018-12-18T09:45:39Z</time>
      </trkpt>
      <trkpt lat="48.00632" lon="6.58959">
        <ele>529.2</ele>
        <time>2018-12-18T09:45:49Z</time>
      </trkpt>
      <trkpt lat="48.00646" lon="6.58979">
        <ele>532.61</ele>
        <time>2018-12-18T09:46:05Z</time>
      </trkpt>
      <trkpt lat="48.00664" lon="6.58988">
        <ele>534.38</ele>
        <time>2018-12-18T09:46:15Z</time>
      </trkpt>
      <trkpt lat="48.0068" lon="6.59001">
        <ele>529.42</ele>
        <time>2018-12-18T09:46:36Z</time>
      </trkpt>
      <trkpt lat="48.00696" lon="6.59014">
        <ele>520.63</ele>
        <time>2018-12-18T09:46:57Z</time>
      </trkpt>
      <trkpt lat="48.00712" lon="6.59031">
        <ele>517.43</ele>
        <time>2018-12-18T09:47:11Z</time>
      </trkpt>
      <trkpt lat="48.00728" lon="6.59045">
        <ele>516.62</ele>
        <time>2018-12-18T09:47:23Z</time>
      </trkpt>
      <trkpt lat="48.00745" lon="6.59063">
        <ele>517.41</ele>
        <time>2018-12-18T09:47:33Z</time>
      </trkpt>
      <trkpt lat="48.0076" lon="6.5908">
        <ele>524.21</ele>
        <time>2018-12-18T09:47:45Z</time>
      </trkpt>
      <trkpt lat="48.0077" lon="6.59106">
        <ele>523.23</ele>
        <time>2018-12-18T09:47:59Z</time>
      </trkpt>
      <trkpt lat="48.00781" lon="6.59129">
        <ele>526.37</ele>
        <time>2018-12-18T09:48:12Z</time>
      </trkpt>
      <trkpt lat="48.00786" lon="6.59156">
        <ele>531.17</ele>
        <time>2018-12-18T09:48:23Z</time>
      </trkpt>
      <trkpt lat="48.00797" lon="6.59179">
        <ele>538.61</ele>
        <time>2018-12-18T09:48:33Z</time>
      </trkpt>
      <trkpt lat="48.00808" lon="6.592">
        <ele>538.42</ele>
        <time>2018-12-18T09:48:47Z</time>
      </trkpt>
      <trkpt lat="48.0082" lon="6.59221">
        <ele>538.45</ele>
        <time>2018-12-18T09:49:25Z</time>
      </trkpt>
      <trkpt lat="48.0083" lon="6.59243">
        <ele>536.22</ele>
        <time>2018-12-18T09:49:40Z</time>
      </trkpt>
      <trkpt lat="48.00844" lon="6.5926">
        <ele>541.38</ele>
        <time>2018-12-18T09:49:53Z</time>
      </trkpt>
      <trkpt lat="48.00857" lon="6.59282">
        <ele>543.62</ele>
        <time>2018-12-18T09:50:07Z</time>
      </trkpt>
      <trkpt lat="48.00869" lon="6.59303">
        <ele>543.46</ele>
        <time>2018-12-18T09:50:20Z</time>
      </trkpt>
      <trkpt lat="48.0088" lon="6.59324">
        <ele>533.23</ele>
        <time>2018-12-18T09:50:38Z</time>
      </trkpt>
      <trkpt lat="48.00894" lon="6.59345">
        <ele>530.17</ele>
        <time>2018-12-18T09:50:54Z</time>
      </trkpt>
      <trkpt lat="48.009" lon="6.5937">
        <ele>529.26</ele>
        <time>2018-12-18T09:51:13Z</time>
      </trkpt>
      <trkpt lat="48.00898" lon="6.59397">
        <ele>532.41</ele>
        <time>2018-12-18T09:51:25Z</time>
      </trkpt>
      <trkpt lat="48.00897" lon="6.59425">
        <ele>541.45</ele>
        <time>2018-12-18T09:51:40Z</time>
      </trkpt>
      <trkpt lat="48.00885" lon="6.59446">
        <ele>537.65</ele>
        <time>2018-12-18T09:51:55Z</time>
      </trkpt>
      <trkpt lat="48.00878" lon="6.5947">
        <ele>545.14</ele>
        <time>2018-12-18T09:52:07Z</time>
      </trkpt>
      <trkpt lat="48.00861" lon="6.59487">
        <ele>539.85</ele>
        <time>2018-12-18T09:52:20Z</time>
      </trkpt>
      <trkpt lat="48.00845" lon="6.595">
        <ele>534.79</ele>
        <time>2018-12-18T09:52:34Z</time>
      </trkpt>
      <trkpt lat="48.00829" lon="6.59515">
        <ele>535.54</ele>
        <time>2018-12-18T09:52:49Z</time>
      </trkpt>
      <trkpt lat="48.00813" lon="6.59528">
        <ele>537.42</ele>
        <time>2018-12-18T09:53:03Z</time>
      </trkpt>
      <trkpt lat="48.00795" lon="6.59537">
        <ele>533.66</ele>
        <time>2018-12-18T09:53:18Z</time>
      </trkpt>
      <trkpt lat="48.00779" lon="6.59552">
        <ele>537.37</ele>
        <time>2018-12-18T09:53:32Z</time>
      </trkpt>
      <trkpt lat="48.00798" lon="6.59547">
        <ele>541.67</ele>
        <time>2018-12-18T09:54:39Z</time>
      </trkpt>
      <trkpt lat="48.00812" lon="6.59531">
        <ele>521.2</ele>
        <time>2018-12-18T09:54:58Z</time>
      </trkpt>
      <trkpt lat="48.0083" lon="6.59522">
        <ele>502.7</ele>
        <time>2018-12-18T09:55:19Z</time>
      </trkpt>
      <trkpt lat="48.00847" lon="6.5951">
        <ele>494.65</ele>
        <time>2018-12-18T09:55:37Z</time>
      </trkpt>
      <trkpt lat="48.00862" lon="6.59495">
        <ele>487.43</ele>
        <time>2018-12-18T09:55:53Z</time>
      </trkpt>
      <trkpt lat="48.00879" lon="6.59482">
        <ele>484.63</ele>
        <time>2018-12-18T09:56:09Z</time>
      </trkpt>
      <trkpt lat="48.00899" lon="6.59479">
        <ele>494.73</ele>
        <time>2018-12-18T09:56:22Z</time>
      </trkpt>
      <trkpt lat="48.00917" lon="6.59475">
        <ele>500.61</ele>
        <time>2018-12-18T09:56:52Z</time>
      </trkpt>
      <trkpt lat="48.00934" lon="6.59462">
        <ele>499.42</ele>
        <time>2018-12-18T09:57:06Z</time>
      </trkpt>
      <trkpt lat="48.00951" lon="6.59452">
        <ele>502.49</ele>
        <time>2018-12-18T09:57:19Z</time>
      </trkpt>
      <trkpt lat="48.00968" lon="6.59441">
        <ele>502.23</ele>
        <time>2018-12-18T09:57:32Z</time>
      </trkpt>
      <trkpt lat="48.00983" lon="6.59421">
        <ele>498.19</ele>
        <time>2018-12-18T09:57:45Z</time>
      </trkpt>
      <trkpt lat="48.00998" lon="6.59406">
        <ele>506.38</ele>
        <time>2018-12-18T09:57:58Z</time>
      </trkpt>
      <trkpt lat="48.01012" lon="6.59387">
        <ele>504.42</ele>
        <time>2018-12-18T09:58:19Z</time>
      </trkpt>
      <trkpt lat="48.01025" lon="6.59367">
        <ele>497.46</ele>
        <time>2018-12-18T09:59:09Z</time>
      </trkpt>
      <trkpt lat="48.01032" lon="6.59342">
        <ele>494.61</ele>
        <time>2018-12-18T09:59:22Z</time>
      </trkpt>
      <trkpt lat="48.01037" lon="6.59315">
        <ele>489.82</ele>
        <time>2018-12-18T09:59:38Z</time>
      </trkpt>
      <trkpt lat="48.0105" lon="6.59334">
        <ele>482.41</ele>
        <time>2018-12-18T10:00:26Z</time>
      </trkpt>
      <trkpt lat="48.01064" lon="6.59352">
        <ele>481.61</ele>
        <time>2018-12-18T10:00:51Z</time>
      </trkpt>
      <trkpt lat="48.01053" lon="6.59375">
        <ele>482.43</ele>
        <time>2018-12-18T10:01:21Z</time>
      </trkpt>
      <trkpt lat="48.01044" lon="6.59401">
        <ele>481.45</ele>
        <time>2018-12-18T10:01:37Z</time>
      </trkpt>
      <trkpt lat="48.01038" lon="6.59427">
        <ele>478.47</ele>
        <time>2018-12-18T10:01:50Z</time>
      </trkpt>
      <trkpt lat="48.01027" lon="6.59453">
        <ele>473.58</ele>
        <time>2018-12-18T10:02:03Z</time>
      </trkpt>
      <trkpt lat="48.01025" lon="6.5948">
        <ele>480.18</ele>
        <time>2018-12-18T10:02:14Z</time>
      </trkpt>
      <trkpt lat="48.01022" lon="6.59507">
        <ele>481.57</ele>
        <time>2018-12-18T10:02:25Z</time>
      </trkpt>
      <trkpt lat="48.01016" lon="6.59534">
        <ele>482.22</ele>
        <time>2018-12-18T10:02:42Z</time>
      </trkpt>
      <trkpt lat="48.01004" lon="6.59554">
        <ele>476.62</ele>
        <time>2018-12-18T10:02:54Z</time>
      </trkpt>
      <trkpt lat="48.00994" lon="6.59577">
        <ele>467.51</ele>
        <time>2018-12-18T10:03:09Z</time>
      </trkpt>
      <trkpt lat="48.01008" lon="6.59559">
        <ele>459.26</ele>
        <time>2018-12-18T10:04:14Z</time>
      </trkpt>
      <trkpt lat="48.01021" lon="6.5954">
        <ele>466.38</ele>
        <time>2018-12-18T10:04:44Z</time>
      </trkpt>
      <trkpt lat="48.01027" lon="6.59512">
        <ele>464.62</ele>
        <time>2018-12-18T10:04:58Z</time>
      </trkpt>
      <trkpt lat="48.01033" lon="6.59537">
        <ele>465.37</ele>
        <time>2018-12-18T10:05:28Z</time>
      </trkpt>
      <trkpt lat="48.01042" lon="6.59561">
        <ele>454.22</ele>
        <time>2018-12-18T10:08:46Z</time>
      </trkpt>
      <trkpt lat="48.01025" lon="6.59549">
        <ele>438.62</ele>
        <time>2018-12-18T10:10:29Z</time>
      </trkpt>
      <trkpt lat="48.01029" lon="6.59576">
        <ele>437.67</ele>
        <time>2018-12-18T10:11:48Z</time>
      </trkpt>
      <trkpt lat="48.01046" lon="6.59565">
        <ele>426.66</ele>
        <time>2018-12-18T10:12:34Z</time>
      </trkpt>
      <trkpt lat="48.01058" lon="6.59586">
        <ele>428.38</ele>
        <time>2018-12-18T10:13:13Z</time>
      </trkpt>
      <trkpt lat="48.01054" lon="6.59614">
        <ele>429.37</ele>
        <time>2018-12-18T10:13:31Z</time>
      </trkpt>
      <trkpt lat="48.01047" lon="6.59639">
        <ele>429.22</ele>
        <time>2018-12-18T10:14:00Z</time>
      </trkpt>
      <trkpt lat="48.01047" lon="6.59666">
        <ele>429.67</ele>
        <time>2018-12-18T10:17:32Z</time>
      </trkpt>
      <trkpt lat="48.01059" lon="6.59645">
        <ele>409.46</ele>
        <time>2018-12-18T10:18:36Z</time>
      </trkpt>
      <trkpt lat="48.01073" lon="6.59628">
        <ele>404.42</ele>
        <time>2018-12-18T10:18:52Z</time>
      </trkpt>
      <trkpt lat="48.01088" lon="6.59609">
        <ele>398.42</ele>
        <time>2018-12-18T10:19:08Z</time>
      </trkpt>
      <trkpt lat="48.01104" lon="6.59592">
        <ele>401.64</ele>
        <time>2018-12-18T10:19:18Z</time>
      </trkpt>
      <trkpt lat="48.0112" lon="6.59577">
        <ele>402.13</ele>
        <time>2018-12-18T10:19:29Z</time>
      </trkpt>
      <trkpt lat="48.01137" lon="6.5956">
        <ele>400.51</ele>
        <time>2018-12-18T10:19:51Z</time>
      </trkpt>
      <trkpt lat="48.0115" lon="6.59539">
        <ele>398.21</ele>
        <time>2018-12-18T10:20:07Z</time>
      </trkpt>
      <trkpt lat="48.01157" lon="6.59513">
        <ele>395.34</ele>
        <time>2018-12-18T10:20:32Z</time>
      </trkpt>
      <trkpt lat="48.01162" lon="6.59486">
        <ele>390.71</ele>
        <time>2018-12-18T10:20:55Z</time>
      </trkpt>
      <trkpt lat="48.01165" lon="6.59458">
        <ele>385.66</ele>
        <time>2018-12-18T10:21:13Z</time>
      </trkpt>
      <trkpt lat="48.01171" lon="6.59432">
        <ele>382.62</ele>
        <time>2018-12-18T10:21:26Z</time>
      </trkpt>
      <trkpt lat="48.01172" lon="6.59403">
        <ele>375.58</ele>
        <time>2018-12-18T10:21:45Z</time>
      </trkpt>
      <trkpt lat="48.01183" lon="6.5938">
        <ele>386.69</ele>
        <time>2018-12-18T10:21:54Z</time>
      </trkpt>
      <trkpt lat="48.01197" lon="6.59361">
        <ele>393.21</ele>
        <time>2018-12-18T10:22:12Z</time>
      </trkpt>
      <trkpt lat="48.01208" lon="6.59338">
        <ele>398.46</ele>
        <time>2018-12-18T10:22:26Z</time>
      </trkpt>
      <trkpt lat="48.0122" lon="6.59316">
        <ele>398.42</ele>
        <time>2018-12-18T10:22:38Z</time>
      </trkpt>
      <trkpt lat="48.01227" lon="6.59291">
        <ele>399.34</ele>
        <time>2018-12-18T10:22:51Z</time>
      </trkpt>
      <trkpt lat="48.01239" lon="6.59269">
        <ele>400.18</ele>
        <time>2018-12-18T10:23:04Z</time>
      </trkpt>
      <trkpt lat="48.01251" lon="6.59245">
        <ele>404.37</ele>
        <time>2018-12-18T10:23:17Z</time>
      </trkpt>
      <trkpt lat="48.01265" lon="6.59226">
        <ele>406.17</ele>
        <time>2018-12-18T10:23:30Z</time>
      </trkpt>
      <trkpt lat="48.01278" lon="6.59206">
        <ele>408.61</ele>
        <time>2018-12-18T10:23:40Z</time>
      </trkpt>
      <trkpt lat="48.0129" lon="6.59186">
        <ele>409.38</ele>
        <time>2018-12-18T10:23:56Z</time>
      </trkpt>
      <trkpt lat="48.01299" lon="6.59162">
        <ele>413.41</ele>
        <time>2018-12-18T10:24:07Z</time>
      </trkpt>
      <trkpt lat="48.01318" lon="6.59155">
        <ele>417.57</ele>
        <time>2018-12-18T10:24:25Z</time>
      </trkpt>
      <trkpt lat="48.01337" lon="6.59157">
        <ele>420.22</ele>
        <time>2018-12-18T10:24:42Z</time>
      </trkpt>
      <trkpt lat="48.01353" lon="6.59144">
        <ele>423.45</ele>
        <time>2018-12-18T10:24:57Z</time>
      </trkpt>
      <trkpt lat="48.01348" lon="6.59118">
        <ele>423.85</ele>
        <time>2018-12-18T10:25:50Z</time>
      </trkpt>
      <trkpt lat="48.01332" lon="6.59102">
        <ele>418.64</ele>
        <time>2018-12-18T10:26:04Z</time>
      </trkpt>
      <trkpt lat="48.01314" lon="6.59093">
        <ele>415.06</ele>
        <time>2018-12-18T10:26:19Z</time>
      </trkpt>
      <trkpt lat="48.01296" lon="6.59086">
        <ele>415.17</ele>
        <time>2018-12-18T10:26:30Z</time>
      </trkpt>
      <trkpt lat="48.01286" lon="6.59063">
        <ele>417.42</ele>
        <time>2018-12-18T10:26:49Z</time>
      </trkpt>
      <trkpt lat="48.01268" lon="6.5906">
        <ele>411.22</ele>
        <time>2018-12-18T10:27:27Z</time>
      </trkpt>
      <trkpt lat="48.01252" lon="6.59045">
        <ele>417.38</ele>
        <time>2018-12-18T10:27:42Z</time>
      </trkpt>
      <trkpt lat="48.01238" lon="6.59026">
        <ele>422.18</ele>
        <time>2018-12-18T10:27:55Z</time>
      </trkpt>
      <trkpt lat="48.01224" lon="6.5901">
        <ele>430.17</ele>
        <time>2018-12-18T10:28:07Z</time>
      </trkpt>
      <trkpt lat="48.01215" lon="6.58985">
        <ele>426.67</ele>
        <time>2018-12-18T10:28:18Z</time>
      </trkpt>
      <trkpt lat="48.0122" lon="6.58957">
        <ele>421.62</ele>
        <time>2018-12-18T10:28:32Z</time>
      </trkpt>
      <trkpt lat="48.01224" lon="6.58929">
        <ele>420.45</ele>
        <time>2018-12-18T10:28:43Z</time>
      </trkpt>
      <trkpt lat="48.01228" lon="6.58902">
        <ele>421.65</ele>
        <time>2018-12-18T10:28:54Z</time>
      </trkpt>
      <trkpt lat="48.01233" lon="6.58875">
        <ele>422.46</ele>
        <time>2018-12-18T10:29:07Z</time>
      </trkpt>
      <trkpt lat="48.0124" lon="6.5885">
        <ele>420.25</ele>
        <time>2018-12-18T10:29:19Z</time>
      </trkpt>
      <trkpt lat="48.01243" lon="6.58823">
        <ele>419.38</ele>
        <time>2018-12-18T10:29:31Z</time>
      </trkpt>
      <trkpt lat="48.01261" lon="6.58816">
        <ele>413.41</ele>
        <time>2018-12-18T10:29:48Z</time>
      </trkpt>
      <trkpt lat="48.01279" lon="6.58815">
        <ele>407.62</ele>
        <time>2018-12-18T10:30:01Z</time>
      </trkpt>
      <trkpt lat="48.01297" lon="6.58816">
        <ele>400.51</ele>
        <time>2018-12-18T10:30:18Z</time>
      </trkpt>
      <trkpt lat="48.01317" lon="6.58808">
        <ele>402.21</ele>
        <time>2018-12-18T10:30:35Z</time>
      </trkpt>
      <trkpt lat="48.01334" lon="6.58803">
        <ele>402.61</ele>
        <time>2018-12-18T10:30:48Z</time>
      </trkpt>
      <trkpt lat="48.01356" lon="6.5881">
        <ele>396.46</ele>
        <time>2018-12-18T10:30:59Z</time>
      </trkpt>
      <trkpt lat="48.01371" lon="6.58794">
        <ele>400.63</ele>
        <time>2018-12-18T10:31:17Z</time>
      </trkpt>
      <trkpt lat="48.01389" lon="6.58786">
        <ele>399.26</ele>
        <time>2018-12-18T10:31:42Z</time>
      </trkpt>
      <trkpt lat="48.01406" lon="6.58799">
        <ele>399.42</ele>
        <time>2018-12-18T10:31:57Z</time>
      </trkpt>
      <trkpt lat="48.01418" lon="6.5882">
        <ele>398.66</ele>
        <time>2018-12-18T10:32:10Z</time>
      </trkpt>
      <trkpt lat="48.01434" lon="6.58836">
        <ele>392.45</ele>
        <time>2018-12-18T10:32:24Z</time>
      </trkpt>
      <trkpt lat="48.01452" lon="6.58833">
        <ele>397.4</ele>
        <time>2018-12-18T10:32:39Z</time>
      </trkpt>
      <trkpt lat="48.01466" lon="6.58814">
        <ele>402.61</ele>
        <time>2018-12-18T10:32:53Z</time>
      </trkpt>
      <trkpt lat="48.01484" lon="6.58805">
        <ele>402.17</ele>
        <time>2018-12-18T10:33:08Z</time>
      </trkpt>
      <trkpt lat="48.01501" lon="6.58814">
        <ele>405.26</ele>
        <time>2018-12-18T10:33:18Z</time>
      </trkpt>
      <trkpt lat="48.01516" lon="6.58831">
        <ele>400.78</ele>
        <time>2018-12-18T10:33:30Z</time>
      </trkpt>
      <trkpt lat="48.01532" lon="6.58844">
        <ele>400.21</ele>
        <time>2018-12-18T10:33:45Z</time>
      </trkpt>
      <trkpt lat="48.01539" lon="6.58869">
        <ele>399.65</ele>
        <time>2018-12-18T10:33:59Z</time>
      </trkpt>
      <trkpt lat="48.01551" lon="6.58891">
        <ele>398.41</ele>
        <time>2018-12-18T10:34:13Z</time>
      </trkpt>
      <trkpt lat="48.01569" lon="6.58895">
        <ele>399.4</ele>
        <time>2018-12-18T10:34:38Z</time>
      </trkpt>
      <trkpt lat="48.01588" lon="6.58895">
        <ele>402.17</ele>
        <time>2018-12-18T10:34:52Z</time>
      </trkpt>
      <trkpt lat="48.01607" lon="6.589">
        <ele>399.34</ele>
        <time>2018-12-18T10:35:06Z</time>
      </trkpt>
      <trkpt lat="48.01623" lon="6.58889">
        <ele>403.66</ele>
        <time>2018-12-18T10:35:36Z</time>
      </trkpt>
      <trkpt lat="48.01641" lon="6.58889">
        <ele>401.49</ele>
        <time>2018-12-18T10:36:01Z</time>
      </trkpt>
      <trkpt lat="48.01659" lon="6.589">
        <ele>400.17</ele>
        <time>2018-12-18T10:36:15Z</time>
      </trkpt>
      <trkpt lat="48.01668" lon="6.58923">
        <ele>402.21</ele>
        <time>2018-12-18T10:36:32Z</time>
      </trkpt>
    </trkseg>
  </trk>
</gpx>